sensor_id;sensor_type;location;lat;lon;timestamp;noise_LAeq;noise_LA_min;noise_LA_max;noise_LA01;noise_LA95
37223;Laerm;28026;48.562;14.440;2023-04-24T00:02:14;39.22;30.89;49.44;;
37223;Laerm;28026;48.562;14.440;2023-04-24T00:04:46;40.24;33.44;45.20;;
37223;Laerm;28026;48.562;14.440;2023-04-24T00:07:16;36.95;29.92;40.23;;
37223;Laerm;28026;48.562;14.440;2023-04-24T00:09:47;37.05;29.92;43.34;;
37223;Laerm;28026;48.562;14.440;2023-04-24T00:12:18;40.85;33.90;45.80;;
37223;Laerm;28026;48.562;14.440;2023-04-24T00:14:49;37.59;32.35;42.22;;
37223;Laerm;28026;48.562;14.440;2023-04-24T00:17:20;40.94;32.35;49.92;;
37223;Laerm;28026;48.562;14.440;2023-04-24T00:19:51;40.46;32.35;53.18;;
37223;Laerm;28026;48.562;14.440;2023-04-24T00:22:28;37.54;30.89;45.14;;
37223;Laerm;28026;48.562;14.440;2023-04-24T00:24:59;42.35;33.90;52.50;;
37223;Laerm;28026;48.562;14.440;2023-04-24T00:27:30;37.51;31.68;42.22;;
37223;Laerm;28026;48.562;14.440;2023-04-24T00:30:01;36.88;30.89;39.92;;
37223;Laerm;28026;48.562;14.440;2023-04-24T00:32:32;36.91;31.68;40.23;;
37223;Laerm;28026;48.562;14.440;2023-04-24T00:35:04;37.27;32.35;39.92;;
37223;Laerm;28026;48.562;14.440;2023-04-24T00:37:34;36.83;30.89;39.92;;
37223;Laerm;28026;48.562;14.440;2023-04-24T00:40:06;36.95;30.89;39.58;;
37223;Laerm;28026;48.562;14.440;2023-04-24T00:42:39;38.55;28.67;45.07;;
37223;Laerm;28026;48.562;14.440;2023-04-24T00:45:12;37.88;32.35;46.07;;
37223;Laerm;28026;48.562;14.440;2023-04-24T00:47:43;39.52;31.68;53.96;;
37223;Laerm;28026;48.562;14.440;2023-04-24T00:50:16;38.60;30.89;50.53;;
37223;Laerm;28026;48.562;14.440;2023-04-24T00:52:46;37.03;31.68;40.53;;
37223;Laerm;28026;48.562;14.440;2023-04-24T00:55:17;40.01;31.68;46.43;;
37223;Laerm;28026;48.562;14.440;2023-04-24T00:57:48;37.68;31.68;44.90;;
37223;Laerm;28026;48.562;14.440;2023-04-24T01:00:20;38.81;32.00;47.32;;
37223;Laerm;28026;48.562;14.440;2023-04-24T01:02:51;36.77;30.89;54.29;;
37223;Laerm;28026;48.562;14.440;2023-04-24T01:05:23;38.73;32.35;45.30;;
37223;Laerm;28026;48.562;14.440;2023-04-24T01:07:54;36.82;30.89;51.86;;
37223;Laerm;28026;48.562;14.440;2023-04-24T01:10:29;37.41;29.92;54.01;;
37223;Laerm;28026;48.562;14.440;2023-04-24T01:13:00;36.61;30.89;39.81;;
37223;Laerm;28026;48.562;14.440;2023-04-24T01:15:31;52.44;29.92;74.99;;
37223;Laerm;28026;48.562;14.440;2023-04-24T01:18:02;47.42;33.90;80.53;;
37223;Laerm;28026;48.562;14.440;2023-04-24T01:20:34;37.42;32.35;42.22;;
37223;Laerm;28026;48.562;14.440;2023-04-24T01:23:06;36.51;30.89;39.58;;
37223;Laerm;28026;48.562;14.440;2023-04-24T01:25:37;36.54;29.92;39.92;;
37223;Laerm;28026;48.562;14.440;2023-04-24T01:28:09;49.42;31.68;82.68;;
37223;Laerm;28026;48.562;14.440;2023-04-24T01:30:40;37.60;31.68;44.27;;
37223;Laerm;28026;48.562;14.440;2023-04-24T01:33:11;36.55;30.89;40.63;;
37223;Laerm;28026;48.562;14.440;2023-04-24T01:35:42;36.34;30.89;40.23;;
37223;Laerm;28026;48.562;14.440;2023-04-24T01:38:13;36.97;28.67;53.94;;
37223;Laerm;28026;48.562;14.440;2023-04-24T01:40:44;36.58;29.92;40.80;;
37223;Laerm;28026;48.562;14.440;2023-04-24T01:43:15;37.01;31.68;43.68;;
37223;Laerm;28026;48.562;14.440;2023-04-24T01:45:46;39.42;29.57;66.07;;
37223;Laerm;28026;48.562;14.440;2023-04-24T01:48:17;37.35;28.67;48.03;;
37223;Laerm;28026;48.562;14.440;2023-04-24T01:50:48;40.96;30.89;61.39;;
37223;Laerm;28026;48.562;14.440;2023-04-24T01:53:19;42.91;35.04;52.57;;
37223;Laerm;28026;48.562;14.440;2023-04-24T01:55:50;41.20;32.93;51.59;;
37223;Laerm;28026;48.562;14.440;2023-04-24T01:58:21;43.00;29.92;62.62;;
37223;Laerm;28026;48.562;14.440;2023-04-24T02:00:56;42.94;34.69;63.53;;
37223;Laerm;28026;48.562;14.440;2023-04-24T02:03:27;42.08;30.89;64.29;;
37223;Laerm;28026;48.562;14.440;2023-04-24T02:05:57;40.85;29.92;70.28;;
37223;Laerm;28026;48.562;14.440;2023-04-24T02:08:28;39.14;31.68;58.83;;
37223;Laerm;28026;48.562;14.440;2023-04-24T02:10:59;38.83;31.68;52.21;;
37223;Laerm;28026;48.562;14.440;2023-04-24T02:13:31;38.08;32.35;53.97;;
37223;Laerm;28026;48.562;14.440;2023-04-24T02:16:02;40.05;31.68;60.14;;
37223;Laerm;28026;48.562;14.440;2023-04-24T02:18:33;44.93;30.89;74.77;;
37223;Laerm;28026;48.562;14.440;2023-04-24T02:21:04;41.73;33.44;65.85;;
37223;Laerm;28026;48.562;14.440;2023-04-24T02:23:35;38.96;32.93;45.67;;
37223;Laerm;28026;48.562;14.440;2023-04-24T02:26:06;38.24;32.35;56.49;;
37223;Laerm;28026;48.562;14.440;2023-04-24T02:28:37;40.56;34.69;48.76;;
37223;Laerm;28026;48.562;14.440;2023-04-24T02:31:07;42.94;36.91;52.02;;
37223;Laerm;28026;48.562;14.440;2023-04-24T02:33:38;44.45;35.66;62.92;;
37223;Laerm;28026;48.562;14.440;2023-04-24T02:36:09;40.51;31.68;48.23;;
37223;Laerm;28026;48.562;14.440;2023-04-24T02:38:40;38.08;32.93;47.02;;
37223;Laerm;28026;48.562;14.440;2023-04-24T02:41:10;38.35;32.35;48.31;;
37223;Laerm;28026;48.562;14.440;2023-04-24T02:43:41;38.00;32.93;46.87;;
37223;Laerm;28026;48.562;14.440;2023-04-24T02:46:12;38.35;32.35;48.51;;
37223;Laerm;28026;48.562;14.440;2023-04-24T02:48:43;37.90;30.89;50.92;;
37223;Laerm;28026;48.562;14.440;2023-04-24T02:51:14;39.58;34.69;53.88;;
37223;Laerm;28026;48.562;14.440;2023-04-24T02:53:44;41.73;35.66;58.78;;
37223;Laerm;28026;48.562;14.440;2023-04-24T02:56:15;44.24;39.08;58.34;;
37223;Laerm;28026;48.562;14.440;2023-04-24T02:58:46;43.97;39.58;50.95;;
37223;Laerm;28026;48.562;14.440;2023-04-24T03:01:17;42.95;38.21;54.51;;
37223;Laerm;28026;48.562;14.440;2023-04-24T03:03:48;42.11;37.12;56.10;;
37223;Laerm;28026;48.562;14.440;2023-04-24T03:06:19;41.52;35.66;53.13;;
37223;Laerm;28026;48.562;14.440;2023-04-24T03:08:51;43.46;36.91;55.15;;
37223;Laerm;28026;48.562;14.440;2023-04-24T03:11:22;40.59;33.44;53.53;;
37223;Laerm;28026;48.562;14.440;2023-04-24T03:13:52;42.01;33.90;50.90;;
37223;Laerm;28026;48.562;14.440;2023-04-24T03:16:23;42.22;35.66;54.42;;
37223;Laerm;28026;48.562;14.440;2023-04-24T03:18:54;41.13;35.04;52.41;;
37223;Laerm;28026;48.562;14.440;2023-04-24T03:21:25;40.58;34.69;52.24;;
37223;Laerm;28026;48.562;14.440;2023-04-24T03:23:56;41.93;36.69;51.75;;
37223;Laerm;28026;48.562;14.440;2023-04-24T03:26:27;41.56;34.69;53.56;;
37223;Laerm;28026;48.562;14.440;2023-04-24T03:28:58;44.28;37.52;55.25;;
37223;Laerm;28026;48.562;14.440;2023-04-24T03:31:29;44.29;34.31;54.27;;
37223;Laerm;28026;48.562;14.440;2023-04-24T03:34:00;41.91;37.12;51.57;;
37223;Laerm;28026;48.562;14.440;2023-04-24T03:36:31;41.84;35.04;51.87;;
37223;Laerm;28026;48.562;14.440;2023-04-24T03:39:02;41.74;36.69;50.39;;
37223;Laerm;28026;48.562;14.440;2023-04-24T03:41:33;43.53;37.12;52.18;;
37223;Laerm;28026;48.562;14.440;2023-04-24T03:44:04;42.19;37.70;51.56;;
37223;Laerm;28026;48.562;14.440;2023-04-24T03:46:34;41.99;37.12;51.70;;
37223;Laerm;28026;48.562;14.440;2023-04-24T03:49:05;44.36;37.12;55.60;;
37223;Laerm;28026;48.562;14.440;2023-04-24T03:51:36;42.67;38.95;53.84;;
37223;Laerm;28026;48.562;14.440;2023-04-24T03:54:07;43.54;37.52;57.70;;
37223;Laerm;28026;48.562;14.440;2023-04-24T03:56:38;42.61;37.70;52.31;;
37223;Laerm;28026;48.562;14.440;2023-04-24T03:59:09;42.20;36.91;58.68;;
37223;Laerm;28026;48.562;14.440;2023-04-24T04:01:39;41.52;36.56;52.60;;
37223;Laerm;28026;48.562;14.440;2023-04-24T04:04:10;42.34;34.69;54.99;;
37223;Laerm;28026;48.562;14.440;2023-04-24T04:06:43;41.57;36.91;52.24;;
37223;Laerm;28026;48.562;14.440;2023-04-24T04:09:15;42.65;37.52;52.11;;
37223;Laerm;28026;48.562;14.440;2023-04-24T04:11:45;42.93;36.91;59.99;;
37223;Laerm;28026;48.562;14.440;2023-04-24T04:14:16;42.25;37.32;59.24;;
37223;Laerm;28026;48.562;14.440;2023-04-24T04:16:47;42.29;37.88;54.31;;
37223;Laerm;28026;48.562;14.440;2023-04-24T04:19:18;43.07;37.52;54.69;;
37223;Laerm;28026;48.562;14.440;2023-04-24T04:21:49;42.72;35.94;61.71;;
37223;Laerm;28026;48.562;14.440;2023-04-24T04:24:23;44.03;37.12;56.44;;
37223;Laerm;28026;48.562;14.440;2023-04-24T04:26:55;49.50;37.52;70.49;;
37223;Laerm;28026;48.562;14.440;2023-04-24T04:29:28;42.96;36.69;55.48;;
37223;Laerm;28026;48.562;14.440;2023-04-24T04:31:59;41.06;35.04;56.65;;
37223;Laerm;28026;48.562;14.440;2023-04-24T04:34:30;42.10;36.69;57.23;;
37223;Laerm;28026;48.562;14.440;2023-04-24T04:37:01;43.19;38.67;53.77;;
37223;Laerm;28026;48.562;14.440;2023-04-24T04:39:32;42.61;37.70;54.75;;
37223;Laerm;28026;48.562;14.440;2023-04-24T04:42:03;43.20;36.45;56.60;;
37223;Laerm;28026;48.562;14.440;2023-04-24T04:44:34;42.52;36.91;54.39;;
37223;Laerm;28026;48.562;14.440;2023-04-24T04:47:06;46.73;38.05;66.79;;
37223;Laerm;28026;48.562;14.440;2023-04-24T04:49:38;48.91;38.67;67.32;;
37223;Laerm;28026;48.562;14.440;2023-04-24T04:52:09;51.83;36.69;68.23;;
37223;Laerm;28026;48.562;14.440;2023-04-24T04:54:40;46.36;39.34;61.84;;
37223;Laerm;28026;48.562;14.440;2023-04-24T04:57:11;56.55;38.37;77.42;;
37223;Laerm;28026;48.562;14.440;2023-04-24T04:59:42;44.12;39.08;55.50;;
37223;Laerm;28026;48.562;14.440;2023-04-24T05:02:14;46.20;37.87;57.52;;
37223;Laerm;28026;48.562;14.440;2023-04-24T05:04:44;44.03;36.69;58.05;;
37223;Laerm;28026;48.562;14.440;2023-04-24T05:07:15;42.31;35.94;57.83;;
37223;Laerm;28026;48.562;14.440;2023-04-24T05:09:46;43.09;37.70;57.73;;
37223;Laerm;28026;48.562;14.440;2023-04-24T05:12:17;41.95;36.45;57.18;;
37223;Laerm;28026;48.562;14.440;2023-04-24T05:14:47;43.81;38.95;58.57;;
37223;Laerm;28026;48.562;14.440;2023-04-24T05:17:18;42.09;36.69;60.62;;
37223;Laerm;28026;48.562;14.440;2023-04-24T05:19:49;41.60;36.69;52.13;;
37223;Laerm;28026;48.562;14.440;2023-04-24T05:22:20;43.23;38.05;54.62;;
37223;Laerm;28026;48.562;14.440;2023-04-24T05:24:51;46.39;38.05;60.67;;
37223;Laerm;28026;48.562;14.440;2023-04-24T05:27:22;46.83;38.21;68.15;;
37223;Laerm;28026;48.562;14.440;2023-04-24T05:29:53;41.36;36.45;56.25;;
37223;Laerm;28026;48.562;14.440;2023-04-24T05:32:24;42.07;35.94;55.66;;
37223;Laerm;28026;48.562;14.440;2023-04-24T05:34:55;44.23;37.88;57.95;;
37223;Laerm;28026;48.562;14.440;2023-04-24T05:37:25;47.35;41.68;64.73;;
37223;Laerm;28026;48.562;14.440;2023-04-24T05:39:56;49.39;42.59;61.35;;
37223;Laerm;28026;48.562;14.440;2023-04-24T05:42:27;50.67;42.88;59.66;;
37223;Laerm;28026;48.562;14.440;2023-04-24T05:44:58;50.45;42.76;60.91;;
37223;Laerm;28026;48.562;14.440;2023-04-24T05:47:29;49.46;41.89;60.84;;
37223;Laerm;28026;48.562;14.440;2023-04-24T05:50:00;47.79;39.58;60.18;;
37223;Laerm;28026;48.562;14.440;2023-04-24T05:52:31;46.90;39.92;60.17;;
37223;Laerm;28026;48.562;14.440;2023-04-24T05:55:01;45.71;38.95;58.60;;
37223;Laerm;28026;48.562;14.440;2023-04-24T05:57:32;44.69;37.52;61.82;;
37223;Laerm;28026;48.562;14.440;2023-04-24T06:00:04;46.81;38.37;73.04;;
37223;Laerm;28026;48.562;14.440;2023-04-24T06:02:36;44.96;38.52;64.13;;
37223;Laerm;28026;48.562;14.440;2023-04-24T06:05:07;44.41;38.05;57.79;;
37223;Laerm;28026;48.562;14.440;2023-04-24T06:07:38;46.62;38.67;58.42;;
37223;Laerm;28026;48.562;14.440;2023-04-24T06:10:10;47.84;40.62;60.70;;
37223;Laerm;28026;48.562;14.440;2023-04-24T06:12:41;47.36;39.92;58.82;;
37223;Laerm;28026;48.562;14.440;2023-04-24T06:15:11;45.65;38.81;58.25;;
37223;Laerm;28026;48.562;14.440;2023-04-24T06:17:43;46.23;38.95;58.56;;
37223;Laerm;28026;48.562;14.440;2023-04-24T06:20:14;44.96;38.37;60.76;;
37223;Laerm;28026;48.562;14.440;2023-04-24T06:22:44;44.58;38.21;61.32;;
37223;Laerm;28026;48.562;14.440;2023-04-24T06:25:16;44.72;39.34;57.92;;
37223;Laerm;28026;48.562;14.440;2023-04-24T06:27:46;44.24;38.52;57.41;;
37223;Laerm;28026;48.562;14.440;2023-04-24T06:30:17;45.09;38.37;58.62;;
37223;Laerm;28026;48.562;14.440;2023-04-24T06:32:48;46.83;38.52;60.69;;
37223;Laerm;28026;48.562;14.440;2023-04-24T06:35:19;47.16;39.81;58.89;;
37223;Laerm;28026;48.562;14.440;2023-04-24T06:37:50;45.83;38.95;58.73;;
37223;Laerm;28026;48.562;14.440;2023-04-24T06:40:22;45.88;37.70;58.64;;
37223;Laerm;28026;48.562;14.440;2023-04-24T06:42:52;45.47;38.95;58.97;;
37223;Laerm;28026;48.562;14.440;2023-04-24T06:45:23;45.93;40.03;57.53;;
37223;Laerm;28026;48.562;14.440;2023-04-24T06:47:54;43.17;38.81;55.91;;
37223;Laerm;28026;48.562;14.440;2023-04-24T06:50:25;43.03;38.52;56.50;;
37223;Laerm;28026;48.562;14.440;2023-04-24T06:52:56;43.21;38.67;56.02;;
37223;Laerm;28026;48.562;14.440;2023-04-24T06:55:26;43.58;38.52;55.99;;
37223;Laerm;28026;48.562;14.440;2023-04-24T06:57:57;44.99;39.46;58.80;;
37223;Laerm;28026;48.562;14.440;2023-04-24T07:00:28;46.94;39.21;59.34;;
37223;Laerm;28026;48.562;14.440;2023-04-24T07:03:00;49.11;41.30;59.80;;
37223;Laerm;28026;48.562;14.440;2023-04-24T07:05:31;48.34;40.71;61.36;;
37223;Laerm;28026;48.562;14.440;2023-04-24T07:08:04;48.62;41.22;59.85;;
37223;Laerm;28026;48.562;14.440;2023-04-24T07:10:35;50.47;41.75;71.37;;
37223;Laerm;28026;48.562;14.440;2023-04-24T07:13:06;53.73;44.11;72.26;;
37223;Laerm;28026;48.562;14.440;2023-04-24T07:15:37;52.45;42.82;60.72;;
37223;Laerm;28026;48.562;14.440;2023-04-24T07:18:08;51.66;42.65;61.12;;
37223;Laerm;28026;48.562;14.440;2023-04-24T07:20:39;53.35;43.34;61.15;;
37223;Laerm;28026;48.562;14.440;2023-04-24T07:23:10;54.23;43.77;62.27;;
37223;Laerm;28026;48.562;14.440;2023-04-24T07:25:41;50.17;40.80;60.69;;
37223;Laerm;28026;48.562;14.440;2023-04-24T07:28:12;47.24;39.58;59.01;;
37223;Laerm;28026;48.562;14.440;2023-04-24T07:30:43;47.19;39.46;68.26;;
37223;Laerm;28026;48.562;14.440;2023-04-24T07:33:14;46.52;37.52;58.06;;
37223;Laerm;28026;48.562;14.440;2023-04-24T07:35:45;47.22;39.35;58.06;;
37223;Laerm;28026;48.562;14.440;2023-04-24T07:38:16;46.81;39.58;58.15;;
37223;Laerm;28026;48.562;14.440;2023-04-24T07:40:47;48.31;40.89;58.46;;
37223;Laerm;28026;48.562;14.440;2023-04-24T07:43:20;48.33;40.23;60.40;;
37223;Laerm;28026;48.562;14.440;2023-04-24T07:45:51;46.99;39.46;64.50;;
37223;Laerm;28026;48.562;14.440;2023-04-24T07:48:22;46.39;39.34;67.68;;
37223;Laerm;28026;48.562;14.440;2023-04-24T07:50:54;47.06;40.13;70.45;;
37223;Laerm;28026;48.562;14.440;2023-04-24T07:53:25;47.61;40.98;64.38;;
37223;Laerm;28026;48.562;14.440;2023-04-24T07:55:56;48.79;40.71;60.05;;
37223;Laerm;28026;48.562;14.440;2023-04-24T07:58:27;48.87;41.06;59.79;;
37223;Laerm;28026;48.562;14.440;2023-04-24T08:00:57;48.39;40.71;60.87;;
37223;Laerm;28026;48.562;14.440;2023-04-24T08:03:28;48.22;40.80;59.95;;
37223;Laerm;28026;48.562;14.440;2023-04-24T08:05:59;50.86;41.89;62.34;;
37223;Laerm;28026;48.562;14.440;2023-04-24T08:08:30;51.24;42.03;60.70;;
37223;Laerm;28026;48.562;14.440;2023-04-24T08:11:01;50.83;42.16;60.98;;
37223;Laerm;28026;48.562;14.440;2023-04-24T08:13:31;52.09;43.34;61.75;;
37223;Laerm;28026;48.562;14.440;2023-04-24T08:16:02;53.85;44.76;61.96;;
37223;Laerm;28026;48.562;14.440;2023-04-24T08:18:33;54.90;45.77;64.07;;
37223;Laerm;28026;48.562;14.440;2023-04-24T08:21:06;53.13;44.19;60.97;;
37223;Laerm;28026;48.562;14.440;2023-04-24T08:23:37;52.54;43.29;61.80;;
37223;Laerm;28026;48.562;14.440;2023-04-24T08:26:07;53.87;44.69;61.90;;
37223;Laerm;28026;48.562;14.440;2023-04-24T08:28:38;54.32;44.54;62.14;;
37223;Laerm;28026;48.562;14.440;2023-04-24T08:31:09;53.88;43.80;61.94;;
37223;Laerm;28026;48.562;14.440;2023-04-24T08:33:40;52.55;44.11;60.84;;
37223;Laerm;28026;48.562;14.440;2023-04-24T08:36:11;54.61;44.47;62.65;;
37223;Laerm;28026;48.562;14.440;2023-04-24T08:38:42;55.17;46.02;62.33;;
37223;Laerm;28026;48.562;14.440;2023-04-24T08:41:14;54.73;45.66;62.96;;
37223;Laerm;28026;48.562;14.440;2023-04-24T08:43:47;52.17;43.09;61.31;;
37223;Laerm;28026;48.562;14.440;2023-04-24T08:46:19;50.87;41.75;60.03;;
37223;Laerm;28026;48.562;14.440;2023-04-24T08:48:52;50.07;41.61;61.17;;
37223;Laerm;28026;48.562;14.440;2023-04-24T08:51:26;50.47;42.41;60.50;;
37223;Laerm;28026;48.562;14.440;2023-04-24T08:53:57;50.37;41.46;61.16;;
37223;Laerm;28026;48.562;14.440;2023-04-24T08:56:29;49.59;41.22;60.31;;
37223;Laerm;28026;48.562;14.440;2023-04-24T08:59:01;52.68;43.34;62.35;;
37223;Laerm;28026;48.562;14.440;2023-04-24T09:01:33;51.45;42.82;61.21;;
37223;Laerm;28026;48.562;14.440;2023-04-24T09:04:08;52.79;43.39;61.67;;
37223;Laerm;28026;48.562;14.440;2023-04-24T09:06:40;53.16;44.35;61.38;;
37223;Laerm;28026;48.562;14.440;2023-04-24T09:09:11;55.13;45.89;62.69;;
37223;Laerm;28026;48.562;14.440;2023-04-24T09:11:42;54.23;45.23;63.03;;
37223;Laerm;28026;48.562;14.440;2023-04-24T09:14:13;53.91;45.75;61.20;;
37223;Laerm;28026;48.562;14.440;2023-04-24T09:16:44;54.59;45.20;65.61;;
37223;Laerm;28026;48.562;14.440;2023-04-24T09:19:15;54.58;45.80;72.61;;
37223;Laerm;28026;48.562;14.440;2023-04-24T09:21:46;53.98;45.01;62.70;;
37223;Laerm;28026;48.562;14.440;2023-04-24T09:24:20;54.11;45.63;61.79;;
37223;Laerm;28026;48.562;14.440;2023-04-24T09:26:57;54.45;44.65;62.06;;
37223;Laerm;28026;48.562;14.440;2023-04-24T09:29:34;54.95;44.39;65.97;;
37223;Laerm;28026;48.562;14.440;2023-04-24T09:32:27;53.76;45.11;62.99;;
37223;Laerm;28026;48.562;14.440;2023-04-24T09:35:14;53.21;44.39;61.68;;
37223;Laerm;28026;48.562;14.440;2023-04-24T09:37:46;53.07;44.47;61.20;;
37223;Laerm;28026;48.562;14.440;2023-04-24T09:40:23;53.61;44.76;61.77;;
37223;Laerm;28026;48.562;14.440;2023-04-24T09:42:56;53.75;44.69;64.23;;
37223;Laerm;28026;48.562;14.440;2023-04-24T09:45:39;53.47;42.88;62.47;;
37223;Laerm;28026;48.562;14.440;2023-04-24T09:48:10;50.94;41.82;61.55;;
37223;Laerm;28026;48.562;14.440;2023-04-24T09:50:46;49.79;40.13;60.86;;
37223;Laerm;28026;48.562;14.440;2023-04-24T09:53:24;47.69;39.81;59.47;;
37223;Laerm;28026;48.562;14.440;2023-04-24T09:55:56;44.81;39.21;58.87;;
37223;Laerm;28026;48.562;14.440;2023-04-24T09:58:32;46.47;39.92;62.65;;
37223;Laerm;28026;48.562;14.440;2023-04-24T10:01:05;46.14;40.43;58.54;;
37223;Laerm;28026;48.562;14.440;2023-04-24T10:03:36;47.38;40.71;59.56;;
37223;Laerm;28026;48.562;14.440;2023-04-24T10:06:06;47.25;39.08;59.97;;
37223;Laerm;28026;48.562;14.440;2023-04-24T10:08:39;46.73;39.81;57.88;;
37223;Laerm;28026;48.562;14.440;2023-04-24T10:11:10;47.98;41.61;59.75;;
37223;Laerm;28026;48.562;14.440;2023-04-24T10:13:42;54.35;45.48;63.48;;
37223;Laerm;28026;48.562;14.440;2023-04-24T10:16:14;55.94;46.07;68.70;;
37223;Laerm;28026;48.562;14.440;2023-04-24T10:18:46;54.98;45.69;62.64;;
37223;Laerm;28026;48.562;14.440;2023-04-24T10:21:19;51.99;43.29;60.35;;
37223;Laerm;28026;48.562;14.440;2023-04-24T10:23:50;50.87;42.76;61.15;;
37223;Laerm;28026;48.562;14.440;2023-04-24T10:26:22;53.17;44.19;64.62;;
37223;Laerm;28026;48.562;14.440;2023-04-24T10:28:57;54.49;45.86;62.31;;
37223;Laerm;28026;48.562;14.440;2023-04-24T10:31:31;56.28;48.39;63.76;;
37223;Laerm;28026;48.562;14.440;2023-04-24T10:34:05;56.15;48.23;64.01;;
37223;Laerm;28026;48.562;14.440;2023-04-24T10:36:44;55.36;47.48;61.97;;
37223;Laerm;28026;48.562;14.440;2023-04-24T10:39:17;55.99;47.16;70.16;;
37223;Laerm;28026;48.562;14.440;2023-04-24T10:41:49;58.03;47.81;64.66;;
37223;Laerm;28026;48.562;14.440;2023-04-24T10:44:22;56.52;49.67;64.62;;
37223;Laerm;28026;48.562;14.440;2023-04-24T10:46:55;55.90;47.67;63.71;;
37223;Laerm;28026;48.562;14.440;2023-04-24T10:49:30;55.57;45.51;63.40;;
37223;Laerm;28026;48.562;14.440;2023-04-24T10:52:03;52.71;43.64;60.94;;
37223;Laerm;28026;48.562;14.440;2023-04-24T11:00:14;52.73;41.22;67.41;;
37223;Laerm;28026;48.562;14.440;2023-04-24T11:02:47;46.38;39.92;58.44;;
37223;Laerm;28026;48.562;14.440;2023-04-24T11:06:03;43.55;38.21;61.42;;
37223;Laerm;28026;48.562;14.440;2023-04-24T11:08:45;42.66;39.08;58.88;;
37223;Laerm;28026;48.562;14.440;2023-04-24T11:11:18;42.67;37.52;57.03;;
37223;Laerm;28026;48.562;14.440;2023-04-24T11:16:31;46.75;38.05;64.20;;
37223;Laerm;28026;48.562;14.440;2023-04-24T11:19:09;43.14;37.52;66.77;;
37223;Laerm;28026;48.562;14.440;2023-04-24T11:21:43;42.37;36.20;62.66;;
37223;Laerm;28026;48.562;14.440;2023-04-24T11:27:21;49.28;37.12;74.63;;
37223;Laerm;28026;48.562;14.440;2023-04-24T11:35:15;67.58;38.52;100.38;;
37223;Laerm;28026;48.562;14.440;2023-04-24T11:37:49;59.68;36.20;83.77;;
37223;Laerm;28026;48.562;14.440;2023-04-24T11:40:22;55.58;36.20;82.93;;
37223;Laerm;28026;48.562;14.440;2023-04-24T11:42:54;54.39;37.52;76.00;;
37223;Laerm;28026;48.562;14.440;2023-04-24T11:45:30;42.95;36.69;67.79;;
37223;Laerm;28026;48.562;14.440;2023-04-24T11:48:02;53.61;37.88;82.71;;
37223;Laerm;28026;48.562;14.440;2023-04-24T11:50:33;44.79;36.69;66.88;;
37223;Laerm;28026;48.562;14.440;2023-04-24T11:53:04;45.42;36.91;72.66;;
37223;Laerm;28026;48.562;14.440;2023-04-24T11:55:35;41.78;36.91;57.45;;
37223;Laerm;28026;48.562;14.440;2023-04-24T11:58:06;43.98;36.10;72.62;;
37223;Laerm;28026;48.562;14.440;2023-04-24T12:00:37;46.86;37.88;65.36;;
37223;Laerm;28026;48.562;14.440;2023-04-24T12:03:10;44.64;37.88;70.32;;
37223;Laerm;28026;48.562;14.440;2023-04-24T12:05:41;43.75;38.81;64.90;;
37223;Laerm;28026;48.562;14.440;2023-04-24T12:08:27;46.36;38.21;70.80;;
37223;Laerm;28026;48.562;14.440;2023-04-24T12:11:05;67.30;38.52;92.17;;
37223;Laerm;28026;48.562;14.440;2023-04-24T12:13:37;59.98;37.52;84.85;;
37223;Laerm;28026;48.562;14.440;2023-04-24T12:16:08;55.51;38.05;80.80;;
37223;Laerm;28026;48.562;14.440;2023-04-24T12:18:44;44.49;37.88;72.57;;
37223;Laerm;28026;48.562;14.440;2023-04-24T12:21:22;44.41;36.91;72.67;;
37223;Laerm;28026;48.562;14.440;2023-04-24T12:23:54;42.22;36.69;63.13;;
37223;Laerm;28026;48.562;14.440;2023-04-24T12:26:27;42.09;37.32;63.93;;
37223;Laerm;28026;48.562;14.440;2023-04-24T12:29:01;44.10;35.66;70.16;;
37223;Laerm;28026;48.562;14.440;2023-04-24T12:31:33;47.33;37.70;75.43;;
37223;Laerm;28026;48.562;14.440;2023-04-24T12:34:25;43.64;37.32;72.03;;
37223;Laerm;28026;48.562;14.440;2023-04-24T12:36:56;47.07;36.45;71.52;;
37223;Laerm;28026;48.562;14.440;2023-04-24T12:39:27;47.45;36.20;72.26;;
37223;Laerm;28026;48.562;14.440;2023-04-24T12:41:58;44.53;38.37;69.61;;
37223;Laerm;28026;48.562;14.440;2023-04-24T12:47:02;57.45;37.12;81.35;;
37223;Laerm;28026;48.562;14.440;2023-04-24T12:49:33;51.14;37.70;78.79;;
37223;Laerm;28026;48.562;14.440;2023-04-24T12:52:04;41.90;37.88;57.01;;
37223;Laerm;28026;48.562;14.440;2023-04-24T12:54:35;46.19;35.66;72.86;;
37223;Laerm;28026;48.562;14.440;2023-04-24T12:57:06;45.65;37.52;72.17;;
37223;Laerm;28026;48.562;14.440;2023-04-24T12:59:36;42.23;36.69;68.69;;
37223;Laerm;28026;48.562;14.440;2023-04-24T13:02:07;49.64;38.05;67.96;;
37223;Laerm;28026;48.562;14.440;2023-04-24T13:04:39;42.47;36.45;64.09;;
37223;Laerm;28026;48.562;14.440;2023-04-24T13:07:10;48.80;36.69;74.49;;
37223;Laerm;28026;48.562;14.440;2023-04-24T13:09:42;47.64;35.36;78.16;;
37223;Laerm;28026;48.562;14.440;2023-04-24T13:12:14;62.39;36.69;93.09;;
37223;Laerm;28026;48.562;14.440;2023-04-24T13:14:46;53.11;34.69;77.82;;
37223;Laerm;28026;48.562;14.440;2023-04-24T13:17:17;47.53;38.81;76.32;;
37223;Laerm;28026;48.562;14.440;2023-04-24T13:19:50;50.59;37.32;77.66;;
37223;Laerm;28026;48.562;14.440;2023-04-24T13:22:22;56.10;37.12;87.87;;
37223;Laerm;28026;48.562;14.440;2023-04-24T13:24:52;48.28;37.70;73.41;;
37223;Laerm;28026;48.562;14.440;2023-04-24T13:27:23;50.84;37.12;81.78;;
37223;Laerm;28026;48.562;14.440;2023-04-24T13:29:54;51.31;37.52;81.21;;
37223;Laerm;28026;48.562;14.440;2023-04-24T13:32:25;49.23;37.53;75.39;;
37223;Laerm;28026;48.562;14.440;2023-04-24T13:34:56;54.70;38.21;80.31;;
37223;Laerm;28026;48.562;14.440;2023-04-24T13:37:27;44.81;37.70;66.88;;
37223;Laerm;28026;48.562;14.440;2023-04-24T13:39:58;44.28;36.91;66.35;;
37223;Laerm;28026;48.562;14.440;2023-04-24T13:42:28;49.30;36.69;76.63;;
37223;Laerm;28026;48.562;14.440;2023-04-24T13:44:59;48.06;37.12;76.58;;
37223;Laerm;28026;48.562;14.440;2023-04-24T13:47:30;53.23;36.69;78.32;;
37223;Laerm;28026;48.562;14.440;2023-04-24T13:50:01;47.20;37.88;73.82;;
37223;Laerm;28026;48.562;14.440;2023-04-24T13:52:32;50.34;37.70;79.52;;
37223;Laerm;28026;48.562;14.440;2023-04-24T13:55:03;44.20;37.12;70.21;;
37223;Laerm;28026;48.562;14.440;2023-04-24T13:57:35;59.08;38.37;83.42;;
37223;Laerm;28026;48.562;14.440;2023-04-24T14:00:06;53.60;36.45;78.79;;
37223;Laerm;28026;48.562;14.440;2023-04-24T14:02:40;45.63;37.70;68.77;;
37223;Laerm;28026;48.562;14.440;2023-04-24T14:05:13;52.38;36.45;77.50;;
37223;Laerm;28026;48.562;14.440;2023-04-24T14:07:45;60.13;36.20;85.44;;
37223;Laerm;28026;48.562;14.440;2023-04-24T14:10:16;55.60;35.04;81.99;;
37223;Laerm;28026;48.562;14.440;2023-04-24T14:12:47;55.43;36.56;81.38;;
37223;Laerm;28026;48.562;14.440;2023-04-24T14:15:19;54.91;37.70;81.68;;
37223;Laerm;28026;48.562;14.440;2023-04-24T14:17:50;48.60;36.91;73.46;;